createdAt,value
2023-02-24T00:02:52.759Z,66.15
2023-02-24T00:05:56.018Z,66.11
2023-02-24T00:08:59.223Z,66.05
2023-02-24T00:12:05.944Z,66.07
2023-02-24T00:15:09.511Z,66.01
2023-02-24T00:18:12.730Z,66.03
2023-02-24T00:21:17.221Z,66.04
2023-02-24T00:24:22.242Z,66.13
2023-02-24T00:27:25.495Z,66.07
2023-02-24T00:30:30.079Z,66.12
2023-02-24T00:33:34.471Z,66.00
2023-02-24T00:36:37.677Z,66.02
2023-02-24T00:39:41.846Z,66.08
2023-02-24T00:42:48.649Z,66.11
2023-02-24T00:45:52.207Z,66.17
2023-02-24T00:48:57.266Z,66.11
2023-02-24T00:52:00.490Z,66.07
2023-02-24T00:55:14.043Z,66.03
2023-02-24T00:58:19.674Z,66.19
2023-02-24T01:01:25.475Z,66.11
2023-02-24T01:04:29.428Z,66.11
2023-02-24T01:07:33.141Z,66.11
2023-02-24T01:10:36.366Z,66.10
2023-02-24T01:13:39.630Z,66.07
2023-02-24T01:16:50.676Z,66.07
2023-02-24T01:19:55.155Z,66.20
2023-02-24T01:22:58.846Z,66.12
2023-02-24T01:26:03.232Z,66.11
2023-02-24T01:29:09.802Z,66.21
2023-02-24T01:32:20.464Z,66.08
2023-02-24T01:35:25.757Z,66.11
2023-02-24T01:38:28.991Z,66.15
2023-02-24T01:41:32.515Z,66.05
2023-02-24T01:44:35.706Z,66.19
2023-02-24T01:47:39.332Z,66.14
2023-02-24T01:50:42.962Z,66.14
2023-02-24T01:53:46.681Z,66.11
2023-02-24T01:56:52.885Z,66.18
2023-02-24T02:00:02.265Z,66.14
2023-02-24T02:03:13.325Z,66.12
2023-02-24T02:06:17.911Z,66.13
2023-02-24T02:09:21.267Z,66.18
2023-02-24T02:12:29.100Z,66.13
2023-02-24T02:15:43.519Z,66.14
2023-02-24T02:19:12.808Z,66.18
2023-02-24T02:22:23.528Z,66.09
2023-02-24T02:25:44.901Z,66.11
2023-02-24T02:29:25.577Z,66.11
2023-02-24T02:32:53.156Z,66.17
2023-02-24T02:36:03.063Z,66.07
2023-02-24T02:39:35.228Z,66.15
2023-02-24T02:42:47.617Z,66.14
2023-02-24T02:45:58.162Z,66.23
2023-02-24T02:49:30.491Z,66.23
2023-02-24T02:52:47.133Z,66.23
2023-02-24T02:56:08.402Z,66.19
2023-02-24T02:59:14.907Z,66.19
2023-02-24T03:02:21.536Z,66.23
2023-02-24T03:05:33.194Z,66.35
2023-02-24T03:08:40.379Z,66.36
2023-02-24T03:11:48.353Z,66.28
2023-02-24T03:15:02.083Z,66.36
2023-02-24T03:18:13.473Z,66.37
2023-02-24T03:21:39.205Z,66.28
2023-02-24T03:24:45.706Z,66.42
2023-02-24T03:28:08.482Z,66.40
2023-02-24T03:31:50.980Z,66.47
2023-02-24T03:35:04.364Z,66.50
2023-02-24T03:38:12.089Z,66.59
2023-02-24T03:41:17.223Z,66.70
2023-02-24T03:44:20.605Z,66.81
2023-02-24T03:47:25.746Z,66.89
2023-02-24T03:50:31.909Z,66.93
2023-02-24T03:54:03.449Z,66.99
2023-02-24T03:57:54.792Z,67.02
2023-02-24T04:01:31.043Z,67.25
2023-02-24T04:04:45.597Z,67.42
2023-02-24T04:08:09.965Z,67.47
2023-02-24T04:11:30.754Z,67.67
2023-02-24T04:14:47.607Z,67.83
2023-02-24T04:17:57.716Z,67.92
2023-02-24T04:21:05.577Z,67.98
2023-02-24T04:24:15.865Z,68.07
2023-02-24T04:27:21.189Z,68.16
2023-02-24T04:30:29.793Z,68.30
2023-02-24T04:33:33.613Z,68.37
2023-02-24T04:36:38.380Z,68.36
2023-02-24T04:39:41.859Z,68.51
2023-02-24T04:42:51.999Z,68.51
2023-02-24T04:45:56.150Z,68.60
2023-02-24T04:49:02.390Z,68.76
2023-02-24T04:52:05.884Z,68.83
2023-02-24T04:55:10.886Z,68.88
2023-02-24T04:58:19.476Z,68.99
2023-02-24T05:01:23.071Z,68.97
2023-02-24T05:04:26.651Z,69.10
2023-02-24T05:07:30.024Z,69.17
2023-02-24T05:10:39.881Z,69.29
2023-02-24T05:13:47.204Z,69.40
2023-02-24T05:16:51.112Z,69.39
2023-02-24T05:20:12.777Z,69.46
2023-02-24T05:23:17.015Z,69.39
2023-02-24T05:26:24.069Z,69.63
2023-02-24T05:29:30.640Z,69.69
2023-02-24T05:32:35.818Z,69.67
2023-02-24T05:35:39.608Z,69.62
2023-02-24T05:38:56.613Z,69.73
2023-02-24T05:42:06.272Z,69.81
2023-02-24T05:45:11.264Z,69.78
2023-02-24T05:48:17.188Z,69.84
2023-02-24T05:51:20.695Z,69.89
2023-02-24T05:54:30.917Z,69.83
2023-02-24T05:57:35.768Z,69.98
2023-02-24T06:00:39.966Z,69.94
2023-02-24T06:03:48.031Z,69.95
2023-02-24T06:06:52.596Z,70.01
2023-02-24T06:09:58.634Z,70.07
2023-02-24T06:13:02.581Z,70.01
2023-02-24T06:16:06.934Z,70.15
2023-02-24T06:19:12.293Z,70.08
2023-02-24T06:22:19.151Z,70.19
2023-02-24T06:25:25.084Z,70.33
2023-02-24T06:28:28.889Z,70.37
2023-02-24T06:31:32.181Z,70.30
2023-02-24T06:34:36.259Z,70.31
2023-02-24T06:37:39.651Z,70.47
2023-02-24T06:40:42.863Z,70.52
2023-02-24T06:43:48.313Z,70.65
2023-02-24T06:46:51.507Z,70.68
2023-02-24T06:49:54.745Z,70.79
2023-02-24T06:53:00.927Z,70.83
2023-02-24T06:56:07.130Z,70.90
2023-02-24T06:59:16.015Z,70.92
2023-02-24T07:02:19.182Z,70.95
2023-02-24T07:05:24.278Z,71.03
2023-02-24T07:08:27.484Z,71.09
2023-02-24T07:11:31.015Z,71.15
2023-02-24T07:14:37.046Z,71.14
2023-02-24T07:17:40.373Z,71.14
2023-02-24T07:20:46.200Z,71.26
2023-02-24T07:23:50.747Z,71.36
2023-02-24T07:27:23.353Z,71.32
2023-02-24T07:30:26.888Z,71.41
2023-02-24T07:33:30.085Z,71.46
2023-02-24T07:36:38.986Z,71.53
2023-02-24T07:39:43.214Z,71.54
2023-02-24T07:42:47.763Z,71.80
2023-02-24T07:45:52.894Z,71.85
2023-02-24T07:48:59.321Z,71.90
2023-02-24T07:52:02.723Z,71.91
2023-02-24T07:55:09.060Z,71.90
2023-02-24T07:58:12.406Z,71.95
2023-02-24T08:01:23.315Z,72.04
2023-02-24T08:04:29.346Z,72.06
2023-02-24T08:07:34.086Z,72.13
2023-02-24T08:10:37.382Z,72.17
2023-02-24T08:13:40.718Z,72.22
2023-02-24T08:16:45.927Z,72.32
2023-02-24T08:20:08.652Z,72.39
2023-02-24T08:23:14.333Z,72.43
2023-02-24T08:26:19.610Z,72.48
2023-02-24T08:29:23.023Z,72.53
2023-02-24T08:32:43.622Z,72.49
2023-02-24T08:35:52.180Z,72.61
2023-02-24T08:38:59.389Z,72.63
2023-02-24T08:42:03.136Z,72.60
2023-02-24T08:45:07.056Z,72.69
2023-02-24T08:48:18.672Z,72.89
2023-02-24T08:51:30.010Z,72.86
2023-02-24T08:54:33.845Z,73.04
2023-02-24T08:57:37.222Z,73.00
2023-02-24T09:00:49.355Z,73.03
2023-02-24T09:03:56.640Z,73.07
2023-02-24T09:07:11.254Z,73.21
2023-02-24T09:10:18.442Z,73.19
2023-02-24T09:13:21.767Z,73.18
2023-02-24T09:16:25.526Z,73.16
2023-02-24T09:19:46.615Z,73.28
2023-02-24T09:23:07.397Z,73.24
2023-02-24T09:26:11.254Z,73.40
2023-02-24T09:29:33.739Z,73.34
2023-02-24T09:32:37.220Z,73.40
2023-02-24T09:35:42.853Z,73.37
2023-02-24T09:39:01.576Z,73.42
2023-02-24T09:42:12.663Z,73.43
2023-02-24T09:45:33.578Z,73.43
2023-02-24T09:48:46.292Z,73.50
2023-02-24T09:52:00.338Z,73.58
2023-02-24T09:55:22.290Z,73.64
2023-02-24T09:58:43.702Z,73.66
2023-02-24T10:02:10.261Z,73.70
2023-02-24T10:05:27.808Z,73.78
2023-02-24T10:08:38.384Z,73.78
2023-02-24T10:11:54.094Z,73.77
2023-02-24T10:15:32.413Z,73.83
2023-02-24T10:19:15.137Z,73.89
2023-02-24T10:22:29.980Z,73.99
2023-02-24T10:25:54.022Z,73.95
2023-02-24T10:29:29.552Z,74.09
2023-02-24T10:32:47.281Z,74.18
2023-02-24T10:35:51.604Z,74.20
2023-02-24T10:38:56.392Z,74.23
2023-02-24T10:42:22.862Z,74.18
2023-02-24T10:45:34.772Z,74.10
2023-02-24T10:48:42.794Z,74.14
2023-02-24T10:51:53.293Z,74.17
2023-02-24T10:55:28.332Z,74.25
2023-02-24T10:58:38.314Z,74.27
2023-02-24T11:01:59.180Z,74.24
2023-02-24T11:05:27.418Z,74.41
2023-02-24T11:08:39.952Z,74.44
2023-02-24T11:12:01.860Z,74.50
2023-02-24T11:15:36.557Z,74.55
2023-02-24T11:18:45.963Z,74.62
2023-02-24T11:21:49.476Z,74.63
2023-02-24T11:24:53.871Z,74.59
2023-02-24T11:27:57.964Z,74.58
2023-02-24T11:31:07.361Z,74.60
2023-02-24T11:34:30.160Z,74.58
2023-02-24T11:37:47.020Z,74.57
2023-02-24T11:41:02.922Z,74.65
2023-02-24T11:44:15.742Z,74.73
2023-02-24T11:47:24.236Z,74.77
2023-02-24T11:50:55.807Z,74.78
2023-02-24T11:54:03.319Z,74.88
2023-02-24T11:57:15.457Z,74.93
2023-02-24T12:00:23.698Z,74.86
2023-02-24T12:03:49.567Z,74.97
2023-02-24T12:07:09.316Z,75.02
2023-02-24T12:10:22.664Z,75.15
2023-02-24T12:13:48.796Z,75.07
2023-02-24T12:17:00.370Z,75.08
2023-02-24T12:20:30.596Z,75.06
2023-02-24T12:23:40.353Z,74.99
2023-02-24T12:27:02.736Z,74.93
2023-02-24T12:30:34.103Z,74.93
2023-02-24T12:33:42.926Z,74.93
2023-02-24T12:36:54.957Z,75.00
2023-02-24T12:40:01.314Z,75.18
2023-02-24T12:43:19.911Z,75.01
2023-02-24T12:46:33.646Z,74.96
2023-02-24T12:49:40.377Z,75.14
2023-02-24T12:52:49.433Z,75.13
2023-02-24T12:55:56.859Z,75.12
2023-02-24T12:59:05.574Z,75.12
2023-02-24T13:02:56.684Z,75.03
2023-02-24T13:06:20.937Z,74.95
2023-02-24T13:09:54.333Z,75.06
2023-02-24T13:13:18.829Z,75.10
2023-02-24T13:16:30.661Z,75.16
2023-02-24T13:19:34.081Z,75.03
2023-02-24T13:22:42.117Z,75.12
2023-02-24T13:25:52.447Z,75.19
2023-02-24T13:29:00.613Z,75.22
2023-02-24T13:32:04.769Z,75.09
2023-02-24T13:35:14.323Z,75.19
2023-02-24T13:38:25.434Z,75.23
2023-02-24T13:41:28.679Z,75.13
2023-02-24T13:44:32.799Z,75.23
2023-02-24T13:47:59.349Z,75.18
2023-02-24T13:51:35.227Z,75.20
2023-02-24T13:54:38.713Z,75.19
2023-02-24T13:57:45.082Z,75.14
2023-02-24T14:01:05.191Z,75.27
2023-02-24T14:04:27.308Z,75.36
2023-02-24T14:07:36.381Z,75.26
2023-02-24T14:10:46.033Z,75.35
2023-02-24T14:13:53.022Z,75.36
2023-02-24T14:16:56.443Z,75.42
2023-02-24T14:20:20.432Z,75.51
2023-02-24T14:23:30.090Z,75.47
2023-02-24T14:26:42.811Z,75.60
2023-02-24T14:29:46.118Z,75.63
2023-02-24T14:32:49.613Z,75.65
2023-02-24T14:35:53.258Z,75.53
2023-02-24T14:39:01.982Z,75.22
2023-02-24T14:42:13.297Z,74.91
2023-02-24T14:45:18.709Z,74.79
2023-02-24T14:48:29.977Z,74.75
2023-02-24T14:51:36.199Z,74.71
2023-02-24T14:54:48.593Z,74.84
2023-02-24T14:57:56.647Z,74.96
2023-02-24T15:01:15.269Z,74.93
2023-02-24T15:04:37.429Z,74.92
2023-02-24T15:07:45.287Z,75.04
2023-02-24T15:10:48.924Z,75.02
2023-02-24T15:14:08.452Z,75.07
2023-02-24T15:17:17.437Z,75.12
2023-02-24T15:20:40.854Z,75.16
2023-02-24T15:23:45.914Z,75.07
2023-02-24T15:26:54.874Z,75.03
2023-02-24T15:30:08.603Z,75.01
2023-02-24T15:33:21.812Z,75.05
2023-02-24T15:36:32.191Z,74.97
2023-02-24T15:39:37.125Z,74.83
2023-02-24T15:42:55.073Z,74.96
2023-02-24T15:45:58.440Z,74.95
2023-02-24T15:49:04.726Z,75.02
2023-02-24T15:52:10.582Z,75.03
2023-02-24T15:55:21.862Z,74.99
2023-02-24T15:58:25.711Z,74.95
2023-02-24T16:01:31.001Z,75.06
2023-02-24T16:04:34.373Z,75.05
2023-02-24T16:07:38.291Z,75.14
2023-02-24T16:11:10.317Z,75.04
2023-02-24T16:14:18.417Z,75.11
2023-02-24T16:17:27.212Z,75.05
2023-02-24T16:20:39.757Z,75.08
2023-02-24T16:23:43.235Z,75.01
2023-02-24T16:26:46.535Z,75.10
2023-02-24T16:29:49.733Z,75.04
2023-02-24T16:32:53.195Z,75.06
2023-02-24T16:35:56.787Z,74.99
2023-02-24T16:39:01.215Z,74.94
2023-02-24T16:42:07.397Z,74.87
2023-02-24T16:45:11.096Z,74.77
2023-02-24T16:48:24.504Z,74.62
2023-02-24T16:51:29.114Z,74.61
2023-02-24T16:54:32.317Z,74.47
2023-02-24T16:57:35.685Z,74.52
2023-02-24T17:00:40.816Z,74.38
2023-02-24T17:03:46.682Z,74.28
2023-02-24T17:06:49.958Z,74.23
2023-02-24T17:09:53.181Z,74.16
2023-02-24T17:12:56.402Z,74.15
2023-02-24T17:16:03.602Z,74.08
2023-02-24T17:19:06.983Z,74.02
2023-02-24T17:22:10.501Z,74.03
2023-02-24T17:25:20.211Z,73.89
2023-02-24T17:28:23.881Z,73.82
2023-02-24T17:31:31.901Z,73.85
2023-02-24T17:34:35.491Z,73.73
2023-02-24T17:37:39.841Z,73.78
2023-02-24T17:40:44.695Z,73.63
2023-02-24T17:43:50.866Z,73.69
2023-02-24T17:46:54.535Z,73.68
2023-02-24T17:49:58.025Z,73.63
2023-02-24T17:53:01.474Z,73.59
2023-02-24T17:56:06.023Z,73.75
2023-02-24T17:59:09.645Z,73.66
2023-02-24T18:02:17.604Z,73.52
2023-02-24T18:05:21.450Z,73.54
2023-02-24T18:08:24.804Z,73.56
2023-02-24T18:11:28.028Z,73.53
2023-02-24T18:14:31.397Z,73.46
2023-02-24T18:17:35.761Z,73.55
2023-02-24T18:20:43.615Z,73.52
2023-02-24T18:23:49.145Z,73.60
2023-02-24T18:26:52.397Z,73.52
2023-02-24T18:29:56.039Z,73.56
2023-02-24T18:32:59.644Z,73.57
2023-02-24T18:36:02.987Z,73.45
2023-02-24T18:39:06.262Z,73.44
2023-02-24T18:42:09.873Z,73.39
2023-02-24T18:45:13.125Z,73.46
2023-02-24T18:48:16.404Z,73.51
2023-02-24T18:51:22.459Z,73.45
2023-02-24T18:54:25.901Z,73.52
2023-02-24T18:57:29.343Z,73.43
2023-02-24T19:00:32.604Z,73.45
2023-02-24T19:03:35.789Z,73.45
2023-02-24T19:06:40.720Z,73.38
2023-02-24T19:09:46.885Z,73.37
2023-02-24T19:12:52.041Z,73.37
2023-02-24T19:15:55.315Z,73.31
2023-02-24T19:19:00.082Z,73.39
2023-02-24T19:22:03.277Z,73.37
2023-02-24T19:25:06.600Z,73.32
2023-02-24T19:28:09.814Z,73.40
2023-02-24T19:31:20.492Z,73.42
2023-02-24T19:34:23.946Z,73.53
2023-02-24T19:37:27.193Z,73.53
2023-02-24T19:40:30.476Z,73.40
2023-02-24T19:43:33.816Z,73.55
2023-02-24T19:46:38.158Z,73.61
2023-02-24T19:49:41.519Z,73.59
2023-02-24T19:52:44.821Z,73.62
2023-02-24T19:55:49.790Z,73.79
2023-02-24T19:58:54.685Z,73.72
2023-02-24T20:01:58.117Z,73.80
2023-02-24T20:05:01.372Z,73.90
2023-02-24T20:08:04.689Z,74.00
2023-02-24T20:11:07.872Z,74.02
2023-02-24T20:14:12.696Z,73.98
2023-02-24T20:17:17.510Z,74.04
2023-02-24T20:20:20.938Z,74.03
2023-02-24T20:23:24.329Z,74.62
2023-02-24T20:26:28.679Z,74.45
2023-02-24T20:29:33.709Z,74.35
2023-02-24T20:32:37.767Z,74.33
2023-02-24T20:35:41.307Z,74.25
2023-02-24T20:38:44.803Z,74.22
2023-02-24T20:41:50.498Z,74.17
2023-02-24T20:44:53.753Z,74.09
2023-02-24T20:47:57.004Z,74.14
2023-02-24T20:51:04.139Z,74.20
2023-02-24T20:54:09.675Z,74.18
2023-02-24T20:57:12.934Z,74.25
2023-02-24T21:00:17.083Z,74.22
2023-02-24T21:03:21.981Z,74.19
2023-02-24T21:06:26.061Z,74.30
2023-02-24T21:09:29.432Z,74.29
2023-02-24T21:12:34.374Z,74.31
2023-02-24T21:15:40.240Z,74.28
2023-02-24T21:18:45.548Z,74.25
2023-02-24T21:21:48.892Z,74.23
2023-02-24T21:24:52.260Z,74.24
2023-02-24T21:27:55.829Z,74.22
2023-02-24T21:30:59.298Z,74.10
2023-02-24T21:34:02.810Z,74.26
2023-02-24T21:37:06.243Z,74.31
2023-02-24T21:40:13.084Z,74.34
2023-02-24T21:43:17.838Z,74.26
2023-02-24T21:46:22.090Z,74.29
2023-02-24T21:49:26.566Z,74.28
2023-02-24T21:52:30.036Z,74.20
2023-02-24T21:55:34.151Z,74.09
2023-02-24T21:58:39.484Z,74.06
2023-02-24T22:01:45.249Z,73.90
2023-02-24T22:04:49.409Z,73.88
2023-02-24T22:07:53.123Z,73.82
2023-02-24T22:11:01.087Z,73.96
2023-02-24T22:14:08.393Z,74.12
2023-02-24T22:17:11.833Z,74.22
2023-02-24T22:20:15.192Z,74.25
2023-02-24T22:23:18.577Z,74.38
2023-02-24T22:26:25.801Z,74.38
2023-02-24T22:29:29.177Z,74.41
2023-02-24T22:32:32.589Z,74.46
2023-02-24T22:35:36.687Z,74.45
2023-02-24T22:38:40.770Z,74.33
2023-02-24T22:41:45.556Z,74.21
2023-02-24T22:44:48.879Z,73.90
2023-02-24T22:47:52.266Z,73.86
2023-02-24T22:50:57.869Z,73.71
2023-02-24T22:54:01.215Z,73.83
2023-02-24T22:57:04.547Z,73.90
2023-02-24T23:00:10.874Z,73.81
2023-02-24T23:03:16.385Z,73.67
2023-02-24T23:06:23.315Z,73.75
2023-02-24T23:09:28.116Z,73.72
2023-02-24T23:12:31.429Z,73.78
2023-02-24T23:15:39.040Z,73.61
2023-02-24T23:18:48.608Z,73.75
2023-02-24T23:21:53.618Z,73.74
2023-02-24T23:24:56.822Z,73.61
2023-02-24T23:28:00.297Z,73.64
2023-02-24T23:31:03.973Z,73.24
2023-02-24T23:34:07.696Z,73.43
2023-02-24T23:37:12.174Z,73.17
2023-02-24T23:40:15.741Z,73.18
2023-02-24T23:43:18.978Z,73.04
2023-02-24T23:46:22.663Z,72.93
2023-02-24T23:49:36.152Z,72.93
2023-02-24T23:52:45.826Z,72.69
2023-02-24T23:55:50.486Z,72.57
2023-02-24T23:58:57.001Z,72.71
